Time;durP1;ratioP1;P1;durP2;ratioP2;P2;SDS_P1;SDS_P2;PMS_P1;PMS_P2;Temp;Humidity;BMP_temperature;BMP_pressure;BME280_temperature;BME280_humidity;BME280_pressure;Samples;Min_cycle;Max_cycle;Signal;HPM_P1;HPM_P2
2022/08/07 00:00:13;;;;;;;0.68;0.40;;;;;;;16.83;51.71;99282.16;4169295;28;20220;-56
2022/08/07 00:02:14;;;;;;;1.48;0.57;;;;;;;16.88;51.40;99279.41;4175420;28;20689;-55
2022/08/07 00:04:36;;;;;;;0.75;0.52;;;;;;;16.76;51.54;99276.88;4172186;28;20554;-53
2022/08/07 00:06:39;;;;;;;0.60;0.50;;;;;;;16.77;51.67;99278.53;4167639;28;20306;-55
2022/08/07 00:08:52;;;;;;;0.60;0.50;;;;;;;16.76;51.43;99276.88;4167829;28;20261;-54
2022/08/07 00:10:55;;;;;;;1.50;0.80;;;;;;;16.74;51.62;99279.06;4165352;28;20205;-55
2022/08/07 00:13:01;;;;;;;1.05;0.52;;;;;;;16.65;51.86;99277.94;4171400;28;20239;-54
2022/08/07 00:15:24;;;;;;;1.08;0.57;;;;;;;16.63;51.86;99277.38;4168537;28;20254;-56
2022/08/07 00:17:38;;;;;;;0.80;0.45;;;;;;;16.62;52.06;99275.72;4166559;28;20602;-54
2022/08/07 00:19:40;;;;;;;1.60;0.68;;;;;;;16.58;52.58;99269.09;4168124;28;20199;-53
2022/08/07 00:22:01;;;;;;;0.60;0.60;;;;;;;16.47;52.71;99261.84;4170460;28;20282;-52
2022/08/07 00:24:04;;;;;;;0.88;0.50;;;;;;;16.46;52.64;99260.19;4165964;28;20208;-54
2022/08/07 00:26:08;;;;;;;1.35;0.50;;;;;;;16.44;52.82;99256.84;4167395;28;20566;-56
2022/08/07 00:28:31;;;;;;;1.80;0.70;;;;;;;16.41;53.08;99257.38;4169270;28;20835;-53
2022/08/07 00:30:34;;;;;;;1.15;0.50;;;;;;;16.39;53.30;99259.59;4164867;28;20216;-54
2022/08/07 00:32:36;;;;;;;1.30;0.50;;;;;;;16.31;53.46;99257.31;4170585;28;21784;-55
2022/08/07 00:34:40;;;;;;;2.08;0.80;;;;;;;16.31;53.38;99262.84;4165751;28;20323;-53
2022/08/07 00:36:42;;;;;;;1.00;0.60;;;;;;;16.29;53.59;99259.50;4169950;28;20250;-54
2022/08/07 00:38:44;;;;;;;2.63;0.70;;;;;;;16.27;53.71;99258.09;4174619;28;20673;-53
2022/08/07 00:40:46;;;;;;;2.05;0.70;;;;;;;16.21;53.77;99257.25;4170755;28;20255;-53
2022/08/07 00:42:48;;;;;;;0.75;0.63;;;;;;;16.15;54.15;99252.81;4169487;28;20225;-54
2022/08/07 00:44:53;;;;;;;2.63;0.55;;;;;;;16.10;54.58;99254.72;4171853;28;20716;-54
2022/08/07 00:46:54;;;;;;;1.20;0.60;;;;;;;16.00;54.68;99249.97;4170275;28;20208;-54
2022/08/07 00:49:00;;;;;;;0.50;0.50;;;;;;;15.97;54.69;99256.00;4171785;28;20228;-54
2022/08/07 00:51:02;;;;;;;0.85;0.60;;;;;;;15.93;54.86;99249.38;4173171;28;20232;-53
2022/08/07 00:53:04;;;;;;;0.40;0.40;;;;;;;15.89;54.94;99248.22;4173521;28;20701;-54
2022/08/07 00:55:09;;;;;;;0.52;0.50;;;;;;;15.93;54.94;99249.38;4177433;28;20231;-53
2022/08/07 00:57:12;;;;;;;0.95;0.70;;;;;;;15.81;55.04;99245.97;4177194;28;20208;-56
2022/08/07 00:59:16;;;;;;;2.33;0.60;;;;;;;15.76;55.39;99243.16;4171072;28;20294;-56
2022/08/07 01:01:21;;;;;;;0.50;0.50;;;;;;;15.69;55.44;99244.50;4168146;28;20235;-56
2022/08/07 01:03:24;;;;;;;0.60;0.60;;;;;;;15.64;55.58;99239.75;4183404;28;20283;-56
2022/08/07 01:05:45;;;;;;;0.52;0.52;;;;;;;15.59;55.85;99242.50;4171771;28;20255;-56
2022/08/07 01:07:54;;;;;;;1.08;0.47;;;;;;;15.55;55.98;99238.59;4175653;28;20777;-53
2022/08/07 01:09:56;;;;;;;0.60;0.60;;;;;;;15.54;56.21;99242.47;4154833;28;20237;-54
2022/08/07 01:12:13;;;;;;;0.52;0.52;;;;;;;15.50;56.15;99238.56;4173251;28;20224;-54
2022/08/07 01:14:30;;;;;;;0.77;0.70;;;;;;;15.51;55.79;99244.91;4159587;28;20201;-55
2022/08/07 01:16:37;;;;;;;0.52;0.47;;;;;;;15.49;55.91;99245.16;4150906;28;20212;-54
2022/08/07 01:18:44;;;;;;;9.68;0.50;;;;;;;15.48;56.07;99237.16;4170571;28;20582;-55
2022/08/07 01:21:14;;;;;;;2.28;0.60;;;;;;;15.45;56.25;99233.03;4173554;28;20657;-54
2022/08/07 01:23:23;;;;;;;0.70;0.70;;;;;;;15.40;56.35;99238.50;4171650;28;20212;-55
2022/08/07 01:25:36;;;;;;;1.63;0.70;;;;;;;15.33;56.48;99243.41;4171516;28;20238;-54
2022/08/07 01:27:56;;;;;;;1.38;0.60;;;;;;;15.28;56.47;99247.97;4170902;28;20287;-54
2022/08/07 01:30:00;;;;;;;1.48;0.60;;;;;;;15.25;56.68;99243.84;4174971;28;20579;-54
2022/08/07 01:32:04;;;;;;;2.40;0.52;;;;;;;15.23;56.76;99246.00;4172048;28;20289;-54
2022/08/07 01:34:14;;;;;;;0.60;0.60;;;;;;;15.21;56.76;99242.69;4173675;28;20204;-54
2022/08/07 01:36:16;;;;;;;0.75;0.75;;;;;;;15.21;56.74;99245.47;4166214;28;20208;-54
2022/08/07 01:38:18;;;;;;;0.70;0.70;;;;;;;15.14;57.20;99244.00;4168740;28;20269;-54
2022/08/07 01:40:27;;;;;;;1.02;0.70;;;;;;;15.12;57.03;99244.28;4170080;28;20220;-54
2022/08/07 01:42:29;;;;;;;0.55;0.50;;;;;;;15.11;57.18;99239.84;4168057;28;20234;-53
2022/08/07 01:44:41;;;;;;;0.43;0.43;;;;;;;15.06;57.03;99242.56;4153436;28;20292;-54
2022/08/07 01:46:48;;;;;;;0.70;0.70;;;;;;;15.03;57.26;99243.06;4167041;28;20210;-54
2022/08/07 01:48:50;;;;;;;0.60;0.60;;;;;;;15.01;57.17;99245.25;4169616;28;20230;-53
2022/08/07 01:51:02;;;;;;;0.57;0.57;;;;;;;14.98;57.33;99242.19;4175155;28;20212;-53
2022/08/07 01:53:26;;;;;;;0.60;0.57;;;;;;;14.93;57.51;99239.38;4171479;28;20208;-56
2022/08/07 01:55:50;;;;;;;0.60;0.60;;;;;;;14.90;57.71;99245.44;4172751;28;20317;-56
2022/08/07 01:57:55;;;;;;;0.52;0.52;;;;;;;14.87;57.84;99238.50;4167817;28;20317;-53
2022/08/07 02:00:16;;;;;;;1.58;0.60;;;;;;;14.83;57.85;99237.34;4152686;28;20291;-56
2022/08/07 02:02:57;;;;;;;4.78;0.80;;;;;;;14.81;58.14;99238.69;4170504;28;20232;-53
2022/08/07 02:05:26;;;;;;;0.75;0.55;;;;;;;14.79;58.25;99230.72;4168902;28;20229;-55
2022/08/07 02:07:51;;;;;;;0.80;0.60;;;;;;;14.75;58.31;99239.72;4157808;28;20208;-54
2022/08/07 02:09:54;;;;;;;0.50;0.50;;;;;;;14.73;58.08;99231.75;4166193;28;20319;-54
2022/08/07 02:12:15;;;;;;;0.73;0.55;;;;;;;14.75;58.22;99228.72;4166878;28;20617;-54
2022/08/07 02:14:18;;;;;;;1.13;0.73;;;;;;;14.70;58.49;99229.50;4170037;28;20232;-54
2022/08/07 02:16:41;;;;;;;1.05;0.90;;;;;;;14.66;58.58;99224.75;4170160;28;20406;-54
2022/08/07 02:18:43;;;;;;;0.50;0.50;;;;;;;14.64;58.81;99225.00;4169633;28;20255;-55
2022/08/07 02:20:50;;;;;;;1.08;0.60;;;;;;;14.61;58.64;99222.78;4150400;28;20228;-54
2022/08/07 02:23:00;;;;;;;0.50;0.50;;;;;;;14.61;58.93;99221.94;4171892;28;20318;-53
2022/08/07 02:25:04;;;;;;;0.70;0.70;;;;;;;14.56;58.93;99224.66;4168839;28;20669;-53
2022/08/07 02:27:20;;;;;;;0.70;0.50;;;;;;;14.53;59.20;99215.00;4156154;28;20201;-54
2022/08/07 02:29:23;;;;;;;0.68;0.57;;;;;;;14.55;59.17;99221.06;4170118;28;20231;-54
2022/08/07 02:31:27;;;;;;;0.90;0.68;;;;;;;14.51;58.93;99222.66;4150906;28;20212;-54
2022/08/07 02:33:30;;;;;;;0.93;0.60;;;;;;;14.50;59.14;99217.44;4153369;28;20205;-54
2022/08/07 02:35:53;;;;;;;0.52;0.50;;;;;;;14.48;59.20;99216.84;4166930;28;20201;-55
2022/08/07 02:38:15;;;;;;;1.15;0.60;;;;;;;14.44;59.12;99211.00;4169225;28;20208;-54
2022/08/07 02:40:23;;;;;;;0.70;0.70;;;;;;;14.49;59.36;99218.53;4165254;28;20214;-54
2022/08/07 02:42:36;;;;;;;0.57;0.57;;;;;;;14.43;59.56;99212.13;4166840;28;20227;-54
2022/08/07 02:44:40;;;;;;;0.93;0.60;;;;;;;14.40;59.57;99214.53;4167515;28;20630;-54
2022/08/07 02:46:51;;;;;;;1.35;0.77;;;;;;;14.38;59.66;99217.56;4168853;28;20275;-54
2022/08/07 02:48:53;;;;;;;0.82;0.68;;;;;;;14.34;59.62;99210.91;4138951;28;20278;-54
2022/08/07 02:50:56;;;;;;;1.00;0.70;;;;;;;14.34;59.82;99213.66;4154305;28;20205;-55
2022/08/07 02:53:03;;;;;;;1.52;0.60;;;;;;;14.31;59.82;99200.41;4167180;28;21005;-54
2022/08/07 02:55:11;;;;;;;0.60;0.60;;;;;;;14.30;59.65;99218.00;4170404;28;20731;-55
2022/08/07 02:57:30;;;;;;;0.93;0.85;;;;;;;14.22;59.75;99218.47;4154073;28;20212;-54
2022/08/07 02:59:36;;;;;;;1.88;0.60;;;;;;;14.36;59.71;99210.66;4168185;28;20199;-54
2022/08/07 03:01:38;;;;;;;0.70;0.70;;;;;;;14.24;59.63;99205.25;4152437;28;20219;-54
2022/08/07 03:03:41;;;;;;;1.10;0.57;;;;;;;14.19;59.94;99202.47;4165732;28;20302;-54
2022/08/07 03:06:42;;;;;;;0.80;0.70;;;;;;;14.17;60.03;99201.84;4153815;28;20200;-55
2022/08/07 03:08:48;;;;;;;0.60;0.60;;;;;;;14.14;59.97;99196.88;4172952;28;20299;-55
2022/08/07 03:10:52;;;;;;;0.40;0.40;;;;;;;14.16;60.26;99200.19;4168632;28;20590;-55
2022/08/07 03:12:56;;;;;;;0.73;0.60;;;;;;;14.12;59.97;99195.44;4168170;28;20238;-54
2022/08/07 03:15:01;;;;;;;0.70;0.70;;;;;;;14.10;60.22;99198.44;4169043;28;20298;-54
2022/08/07 03:17:08;;;;;;;0.60;0.60;;;;;;;14.07;60.12;99193.47;4168671;28;20261;-55
2022/08/07 03:19:10;;;;;;;0.63;0.63;;;;;;;14.08;60.44;99195.13;4154815;28;20208;-55
2022/08/07 03:21:14;;;;;;;0.60;0.60;;;;;;;14.09;60.48;99190.47;4164432;28;20208;-55
2022/08/07 03:23:20;;;;;;;0.50;0.50;;;;;;;14.08;60.39;99186.03;4178023;28;20227;-55
2022/08/07 03:25:37;;;;;;;3.15;0.60;;;;;;;14.07;60.43;99187.97;4166595;28;20295;-55
2022/08/07 03:27:42;;;;;;;0.57;0.57;;;;;;;14.03;60.48;99186.81;4165817;28;20245;-55
2022/08/07 03:30:04;;;;;;;0.80;0.80;;;;;;;13.99;60.54;99180.16;4167816;28;20231;-55
2022/08/07 03:32:11;;;;;;;0.70;0.70;;;;;;;13.96;60.35;99186.16;4166107;28;20235;-55
2022/08/07 03:34:16;;;;;;;0.75;0.75;;;;;;;13.94;60.36;99182.84;4167490;28;20213;-55
2022/08/07 03:36:21;;;;;;;1.52;0.85;;;;;;;13.96;60.53;99188.91;4165383;28;20200;-55
2022/08/07 03:38:26;;;;;;;2.08;0.70;;;;;;;13.91;60.82;99177.84;4164578;28;20220;-55
2022/08/07 03:40:34;;;;;;;1.42;0.80;;;;;;;13.88;60.55;99183.88;4149152;28;20266;-55
2022/08/07 03:42:38;;;;;;;1.45;0.63;;;;;;;13.87;60.59;99176.69;4168296;28;20656;-55
2022/08/07 03:44:40;;;;;;;0.73;0.70;;;;;;;13.84;60.66;99188.19;4165176;28;20208;-55
2022/08/07 03:46:47;;;;;;;0.65;0.60;;;;;;;13.81;60.72;99183.22;4165971;28;20255;-54
2022/08/07 03:49:09;;;;;;;1.30;0.50;;;;;;;13.79;61.02;99192.81;4166767;28;20216;-56
2022/08/07 03:51:17;;;;;;;0.60;0.60;;;;;;;13.71;61.16;99198.75;4149594;28;20247;-55
2022/08/07 03:53:21;;;;;;;0.57;0.57;;;;;;;13.71;61.07;99194.06;4167781;28;20256;-55
2022/08/07 03:55:43;;;;;;;0.90;0.63;;;;;;;13.71;61.09;99185.81;4168517;28;20274;-55
2022/08/07 03:58:04;;;;;;;0.75;0.75;;;;;;;13.68;61.39;99186.34;4165813;28;20275;-54
2022/08/07 04:00:28;;;;;;;0.77;0.73;;;;;;;13.67;61.46;99198.44;4169233;28;20261;-55
2022/08/07 04:02:34;;;;;;;0.68;0.60;;;;;;;13.70;61.21;99197.91;4163807;28;20301;-55
2022/08/07 04:04:41;;;;;;;0.65;0.65;;;;;;;13.64;61.48;99193.41;4169580;28;20227;-54
2022/08/07 04:06:45;;;;;;;1.17;0.80;;;;;;;13.57;61.46;99198.25;4170136;28;20303;-55
2022/08/07 04:08:52;;;;;;;0.60;0.60;;;;;;;13.58;61.51;99194.41;4150959;28;20231;-55
2022/08/07 04:10:56;;;;;;;2.97;0.70;;;;;;;13.55;61.66;99194.09;4170730;28;20328;-55
2022/08/07 04:13:19;;;;;;;1.23;0.77;;;;;;;13.52;61.33;99206.47;4169778;28;20259;-54
2022/08/07 04:15:28;;;;;;;0.70;0.70;;;;;;;13.51;61.54;99199.28;4170381;28;20311;-54
2022/08/07 04:17:30;;;;;;;0.95;0.60;;;;;;;13.38;61.53;99198.81;4156936;28;21587;-56
2022/08/07 04:19:51;;;;;;;0.55;0.55;;;;;;;13.31;61.72;99196.22;4159156;28;20228;-55
2022/08/07 04:21:55;;;;;;;1.00;0.77;;;;;;;13.33;61.78;99202.31;4148819;28;20602;-55
2022/08/07 04:24:09;;;;;;;0.80;0.68;;;;;;;13.27;61.89;99208.81;4171453;28;20200;-55
2022/08/07 04:26:31;;;;;;;1.27;0.70;;;;;;;13.29;62.03;99211.31;4183218;28;20587;-55
2022/08/07 04:28:33;;;;;;;0.43;0.43;;;;;;;13.31;62.11;99207.19;4168479;28;20211;-55
2022/08/07 04:30:35;;;;;;;1.13;1.00;;;;;;;13.35;62.23;99205.63;4170198;28;20227;-54
2022/08/07 04:32:56;;;;;;;0.75;0.60;;;;;;;13.34;62.09;99212.22;4170900;28;20230;-55
2022/08/07 04:35:01;;;;;;;0.77;0.60;;;;;;;13.36;61.99;99212.78;4156565;28;20209;-54
2022/08/07 04:37:05;;;;;;;0.95;0.80;;;;;;;13.35;61.83;99222.13;4173343;28;20581;-55
2022/08/07 04:39:15;;;;;;;1.20;0.70;;;;;;;13.37;62.03;99216.38;4170538;28;20220;-54
2022/08/07 04:41:19;;;;;;;0.68;0.60;;;;;;;13.36;62.07;99223.78;4169217;28;20250;-55
2022/08/07 04:43:29;;;;;;;0.52;0.52;;;;;;;13.36;62.03;99221.03;4168798;28;20216;-55
2022/08/07 04:46:05;;;;;;;1.05;0.68;;;;;;;13.39;62.33;99226.06;4170952;28;20231;-56
2022/08/07 04:48:36;;;;;;;0.80;0.77;;;;;;;13.40;62.53;99224.97;4169613;28;20209;-55
2022/08/07 04:50:46;;;;;;;0.93;0.63;;;;;;;13.38;62.57;99227.09;4182360;28;20215;-55
2022/08/07 04:53:11;;;;;;;0.70;0.70;;;;;;;13.42;62.76;99224.69;4170600;28;20798;-56
2022/08/07 04:55:48;;;;;;;1.38;0.65;;;;;;;13.42;62.86;99236.53;4164715;28;20212;-56
2022/08/07 04:58:24;;;;;;;1.08;0.60;;;;;;;13.32;62.88;99236.38;4170726;28;20625;-56
2022/08/07 05:00:58;;;;;;;2.83;0.65;;;;;;;13.33;62.90;99235.31;4170285;28;20632;-56
2022/08/07 05:03:14;;;;;;;1.02;0.70;;;;;;;13.45;62.33;99233.31;4172761;28;20238;-56
2022/08/07 05:05:45;;;;;;;1.05;0.60;;;;;;;13.50;62.24;99241.59;4171805;28;20302;-56
2022/08/07 05:08:02;;;;;;;0.70;0.70;;;;;;;13.51;62.19;99237.78;4171398;28;20975;-56
2022/08/07 05:10:15;;;;;;;2.13;0.82;;;;;;;13.55;62.77;99244.44;4172795;28;20220;-55
2022/08/07 05:12:26;;;;;;;1.20;0.68;;;;;;;13.59;62.72;99239.28;4170619;28;20784;-54
2022/08/07 05:14:35;;;;;;;0.60;0.60;;;;;;;13.63;62.58;99237.69;4174477;28;20254;-56
2022/08/07 05:17:01;;;;;;;0.88;0.60;;;;;;;13.66;62.74;99235.28;4172671;28;20209;-56
2022/08/07 05:19:20;;;;;;;0.77;0.70;;;;;;;13.70;62.39;99241.09;4176790;28;20204;-53
2022/08/07 05:21:43;;;;;;;1.15;0.65;;;;;;;13.74;62.81;99245.84;4161287;28;20237;-55
2022/08/07 05:24:04;;;;;;;0.65;0.60;;;;;;;13.80;62.70;99252.25;4157196;28;20217;-55
2022/08/07 05:26:09;;;;;;;3.10;0.63;;;;;;;13.85;62.70;99247.66;4184604;28;20203;-55
2022/08/07 05:28:25;;;;;;;0.70;0.70;;;;;;;13.92;62.43;99245.56;4182891;28;20516;-56
2022/08/07 05:30:28;;;;;;;1.00;0.88;;;;;;;14.04;62.07;99251.75;4169449;28;20220;-56
2022/08/07 05:32:34;;;;;;;0.50;0.50;;;;;;;14.22;61.55;99257.00;4168167;28;20753;-54
2022/08/07 05:34:36;;;;;;;1.65;0.50;;;;;;;14.31;60.96;99249.97;4172793;28;20589;-55
2022/08/07 05:36:46;;;;;;;0.85;0.82;;;;;;;14.32;60.50;99254.41;4159157;28;20200;-55
2022/08/07 05:38:50;;;;;;;0.98;0.70;;;;;;;14.38;59.90;99255.28;4174663;28;20235;-55
2022/08/07 05:41:09;;;;;;;1.23;0.60;;;;;;;14.52;59.79;99262.91;4168047;28;20278;-54
2022/08/07 05:43:16;;;;;;;0.68;0.65;;;;;;;14.64;59.88;99260.81;4151628;28;20228;-55
2022/08/07 05:45:20;;;;;;;0.57;0.57;;;;;;;14.67;60.18;99260.34;4169852;28;20204;-55
2022/08/07 05:47:41;;;;;;;0.73;0.73;;;;;;;14.76;59.46;99253.25;4169885;28;20682;-55
2022/08/07 05:50:03;;;;;;;0.57;0.57;;;;;;;14.88;59.33;99262.22;4169274;28;20193;-55
2022/08/07 05:52:07;;;;;;;0.50;0.50;;;;;;;15.22;58.86;99263.66;4169301;28;20236;-55
2022/08/07 05:54:12;;;;;;;0.60;0.60;;;;;;;15.05;58.95;99262.97;4168938;28;20365;-55
2022/08/07 05:56:35;;;;;;;0.68;0.50;;;;;;;15.51;58.69;99264.22;4182600;28;20250;-57
2022/08/07 05:58:38;;;;;;;0.85;0.60;;;;;;;15.80;58.17;99258.09;4189370;28;20204;-56
2022/08/07 06:00:42;;;;;;;0.40;0.40;;;;;;;15.96;58.03;99259.06;4188259;28;20206;-55
2022/08/07 06:02:48;;;;;;;1.80;0.57;;;;;;;15.98;57.62;99260.44;4186961;28;20230;-56
2022/08/07 06:04:53;;;;;;;0.80;0.70;;;;;;;16.21;57.53;99260.03;4191390;28;20233;-56
2022/08/07 06:06:55;;;;;;;1.40;0.60;;;;;;;16.19;56.70;99262.22;4191245;28;20238;-58
2022/08/07 06:09:05;;;;;;;0.50;0.50;;;;;;;16.53;56.85;99270.97;4188652;28;20215;-55
2022/08/07 06:11:08;;;;;;;0.55;0.50;;;;;;;16.73;56.15;99266.38;4184275;28;20229;-58
2022/08/07 06:13:10;;;;;;;0.47;0.45;;;;;;;16.91;56.13;99265.88;4184554;28;20318;-57
2022/08/07 06:15:16;;;;;;;1.35;0.60;;;;;;;17.05;56.54;99264.25;4174367;28;20247;-55
2022/08/07 06:17:20;;;;;;;1.45;0.60;;;;;;;17.16;55.72;99265.91;4185298;28;20671;-56
2022/08/07 06:19:31;;;;;;;1.88;0.50;;;;;;;17.40;54.63;99269.84;4165916;28;20222;-57
2022/08/07 06:21:53;;;;;;;0.63;0.63;;;;;;;17.53;55.03;99270.13;4187213;28;20691;-56
2022/08/07 06:24:14;;;;;;;0.40;0.40;;;;;;;17.70;54.32;99267.06;4184889;28;20242;-57
2022/08/07 06:26:40;;;;;;;2.17;0.70;;;;;;;17.88;53.70;99272.06;4183450;28;20373;-54
2022/08/07 06:29:02;;;;;;;0.40;0.40;;;;;;;18.01;53.90;99268.72;4182073;28;20242;-56
2022/08/07 06:31:06;;;;;;;1.85;0.55;;;;;;;18.06;53.14;99268.72;4184375;28;20219;-54
2022/08/07 06:33:08;;;;;;;0.85;0.60;;;;;;;18.31;53.27;99266.72;4183674;28;20672;-55
2022/08/07 06:35:17;;;;;;;1.48;0.40;;;;;;;18.32;53.41;99270.34;4188186;28;20206;-55
2022/08/07 06:37:23;;;;;;;0.85;0.60;;;;;;;18.18;50.66;99274.78;4170389;28;20463;-57
2022/08/07 06:39:44;;;;;;;1.48;0.50;;;;;;;18.12;52.02;99270.38;4193383;28;20235;-54
2022/08/07 06:42:14;;;;;;;0.55;0.45;;;;;;;18.23;51.57;99267.28;4192175;28;20273;-52
2022/08/07 06:44:16;;;;;;;2.35;0.45;;;;;;;18.11;52.73;99268.72;4168550;28;20254;-53
2022/08/07 06:46:19;;;;;;;4.20;0.50;;;;;;;18.23;51.23;99274.75;4187384;28;20740;-53
2022/08/07 06:48:36;;;;;;;1.00;0.80;;;;;;;18.22;51.08;99270.31;4184277;28;20229;-53
2022/08/07 06:50:44;;;;;;;1.17;0.80;;;;;;;18.32;50.75;99270.34;4187447;28;20211;-53
2022/08/07 06:52:53;;;;;;;0.70;0.60;;;;;;;18.60;50.93;99266.91;4186692;28;20702;-53
2022/08/07 06:54:56;;;;;;;1.90;0.47;;;;;;;18.51;49.26;99269.44;4182688;28;20849;-57
2022/08/07 06:57:19;;;;;;;0.50;0.40;;;;;;;18.80;50.65;99270.44;4169520;28;20627;-55
2022/08/07 06:59:41;;;;;;;0.85;0.32;;;;;;;18.94;49.61;99274.25;4187774;28;20348;-55
2022/08/07 07:02:05;;;;;;;1.17;0.40;;;;;;;18.84;49.77;99273.47;4156254;28;20249;-55
2022/08/07 07:04:07;;;;;;;0.45;0.38;;;;;;;18.75;49.43;99275.16;4175201;28;20208;-55
2022/08/07 07:06:30;;;;;;;0.63;0.43;;;;;;;18.88;48.75;99271.78;4172306;28;20208;-55
2022/08/07 07:08:39;;;;;;;1.30;0.82;;;;;;;18.82;49.08;99270.13;4171687;28;20208;-55
2022/08/07 07:10:47;;;;;;;1.70;0.50;;;;;;;18.98;49.99;99268.97;4169537;28;20215;-55
2022/08/07 07:13:05;;;;;;;3.95;1.38;;;;;;;19.35;49.08;99272.06;4185847;28;20236;-55
2022/08/07 07:15:21;;;;;;;4.63;0.80;;;;;;;19.65;49.32;99269.06;4171959;28;21990;-55
2022/08/07 07:17:53;;;;;;;0.47;0.47;;;;;;;19.76;49.15;99265.91;4169369;28;20247;-54
2022/08/07 07:19:59;;;;;;;1.00;0.50;;;;;;;20.12;48.45;99266.44;4170996;28;20295;-54
2022/08/07 07:22:03;;;;;;;0.82;0.40;;;;;;;20.39;48.18;99266.72;4187643;28;20223;-54
2022/08/07 07:24:25;;;;;;;0.80;0.55;;;;;;;20.64;47.59;99271.97;4172880;28;20273;-54
2022/08/07 07:26:29;;;;;;;0.40;0.32;;;;;;;20.88;47.48;99270.00;4172082;28;20208;-54
2022/08/07 07:28:53;;;;;;;0.30;0.30;;;;;;;20.86;46.52;99273.09;4173359;28;20210;-54
2022/08/07 07:31:22;;;;;;;0.30;0.20;;;;;;;20.85;45.86;99267.81;4170988;28;20223;-55
2022/08/07 07:33:25;;;;;;;0.77;0.30;;;;;;;21.13;45.53;99264.94;4168642;28;20235;-54
2022/08/07 07:35:30;;;;;;;0.70;0.40;;;;;;;21.06;44.70;99269.22;4169421;28;20660;-54
2022/08/07 07:37:35;;;;;;;2.65;0.30;;;;;;;20.87;44.87;99265.56;4167565;28;20219;-54
2022/08/07 07:39:53;;;;;;;0.40;0.40;;;;;;;21.01;44.58;99253.44;4190158;28;20202;-55
2022/08/07 07:41:56;;;;;;;0.20;0.20;;;;;;;21.16;44.17;99257.94;4171779;28;20215;-56
2022/08/07 07:44:15;;;;;;;0.98;0.80;;;;;;;21.12;43.69;99268.03;4171548;28;20218;-53
2022/08/07 07:46:33;;;;;;;1.27;0.77;;;;;;;21.35;43.58;99255.97;4173513;28;20253;-54
2022/08/07 07:48:56;;;;;;;0.50;0.50;;;;;;;21.54;43.46;99248.44;4170723;28;20673;-53
2022/08/07 07:51:09;;;;;;;1.38;0.60;;;;;;;21.69;43.85;99251.00;4169124;28;20254;-52
2022/08/07 07:53:18;;;;;;;0.70;0.40;;;;;;;21.65;42.92;99249.94;4153616;28;20228;-54
2022/08/07 07:55:26;;;;;;;2.35;0.60;;;;;;;21.69;44.18;99254.63;4164008;28;20227;-53
2022/08/07 07:57:48;;;;;;;1.38;0.65;;;;;;;21.74;42.98;99253.69;4167032;28;20223;-54
2022/08/07 07:59:54;;;;;;;3.00;0.75;;;;;;;21.95;43.37;99249.44;4170396;28;20231;-54
2022/08/07 08:01:59;;;;;;;0.90;0.50;;;;;;;22.01;43.24;99251.00;4166520;28;20230;-53
2022/08/07 08:04:11;;;;;;;1.48;0.60;;;;;;;22.35;43.42;99243.09;4162191;28;20591;-53
2022/08/07 08:06:15;;;;;;;0.65;0.40;;;;;;;22.58;42.53;99253.28;4165680;28;20617;-54
2022/08/07 08:08:17;;;;;;;3.00;0.60;;;;;;;22.41;43.51;99244.66;4165196;28;20665;-54
2022/08/07 08:10:38;;;;;;;0.85;0.80;;;;;;;22.28;42.87;99248.25;4155318;28;20637;-54
2022/08/07 08:12:42;;;;;;;1.00;0.70;;;;;;;22.22;43.15;99238.31;4166327;28;20230;-53
2022/08/07 08:15:00;;;;;;;2.33;1.20;;;;;;;22.22;43.37;99235.53;4166056;28;21446;-53
2022/08/07 08:17:09;;;;;;;1.58;0.95;;;;;;;21.80;43.69;99241.34;4172781;28;20213;-53
2022/08/07 08:19:31;;;;;;;1.13;0.80;;;;;;;22.17;43.24;99241.22;4166747;28;20207;-52
2022/08/07 08:27:04;;;;;;;1.55;0.75;;;;;;;22.90;42.26;99234.44;4165484;28;20207;-54
2022/08/07 08:29:10;;;;;;;1.83;0.57;;;;;;;22.75;43.13;99236.72;4176041;28;20243;-52
2022/08/07 08:31:17;;;;;;;0.60;0.60;;;;;;;23.12;42.92;99231.72;4152698;28;20702;-53
2022/08/07 08:33:33;;;;;;;1.05;0.73;;;;;;;22.77;43.30;99234.47;4164216;28;20842;-52
2022/08/07 08:35:36;;;;;;;1.05;0.65;;;;;;;22.91;43.59;99240.84;4177240;28;20648;-53
2022/08/07 08:37:48;;;;;;;4.40;1.00;;;;;;;22.75;43.41;99236.72;4164500;28;20614;-53
2022/08/07 08:40:15;;;;;;;0.90;0.80;;;;;;;22.86;43.84;99232.56;4166708;28;20288;-54
2022/08/07 08:42:51;;;;;;;3.78;0.80;;;;;;;23.36;43.33;99226.69;4171907;28;20229;-55
2022/08/07 08:44:59;;;;;;;1.20;0.80;;;;;;;23.32;42.83;99230.44;4166930;28;20211;-53
2022/08/07 08:47:21;;;;;;;0.82;0.80;;;;;;;23.40;43.21;99224.09;4154722;28;20371;-53
2022/08/07 08:49:49;;;;;;;1.95;0.90;;;;;;;24.10;43.15;99232.38;4169126;28;20212;-53
2022/08/07 08:52:19;;;;;;;1.20;0.77;;;;;;;24.54;42.77;99226.63;4155260;28;20709;-53
2022/08/07 08:54:34;;;;;;;1.10;0.75;;;;;;;24.98;42.29;99226.47;4172119;28;21142;-53
2022/08/07 08:56:42;;;;;;;2.38;0.98;;;;;;;24.56;42.13;99224.38;4169405;28;20277;-52
2022/08/07 08:58:53;;;;;;;1.00;0.80;;;;;;;24.04;43.11;99216.84;4169856;28;20657;-54
2022/08/07 09:01:04;;;;;;;2.85;1.27;;;;;;;23.84;43.04;99211.78;4150952;28;20235;-54
2022/08/07 09:03:30;;;;;;;1.45;1.10;;;;;;;24.59;43.33;99217.31;4189427;28;20799;-52
2022/08/07 09:05:56;;;;;;;5.07;0.88;;;;;;;25.15;42.41;99212.50;4192051;28;20249;-52
2022/08/07 09:07:58;;;;;;;1.00;0.65;;;;;;;24.57;41.45;99219.59;4191214;28;20206;-52
2022/08/07 09:10:18;;;;;;;1.05;0.82;;;;;;;24.87;42.81;99213.91;4187168;28;20260;-53
2022/08/07 09:12:44;;;;;;;2.08;0.88;;;;;;;24.77;42.44;99224.59;4179905;28;20676;-52
2022/08/07 09:15:14;;;;;;;0.88;0.80;;;;;;;24.52;42.47;99211.34;4199386;28;20305;-53
2022/08/07 09:17:45;;;;;;;1.42;0.80;;;;;;;24.55;42.69;99219.91;4186633;28;20214;-53
2022/08/07 09:20:26;;;;;;;1.05;0.95;;;;;;;25.16;43.02;99205.75;4166235;28;20215;-53
2022/08/07 09:22:50;;;;;;;1.20;0.80;;;;;;;24.83;43.10;99206.50;4199838;28;20606;-52
2022/08/07 09:25:35;;;;;;;2.67;1.08;;;;;;;25.00;41.92;99204.56;4186664;28;20225;-52
2022/08/07 09:27:47;;;;;;;0.70;0.70;;;;;;;25.29;42.45;99207.59;4192338;28;20221;-53
2022/08/07 09:30:07;;;;;;;2.50;0.90;;;;;;;25.15;41.91;99204.09;4192165;28;20286;-52
2022/08/07 09:32:34;;;;;;;0.95;0.88;;;;;;;25.44;41.54;99201.50;4196918;28;20233;-52
2022/08/07 09:34:53;;;;;;;1.33;0.70;;;;;;;25.52;41.30;99200.66;4195842;28;20210;-52
2022/08/07 09:37:06;;;;;;;0.73;0.70;;;;;;;25.34;40.62;99195.38;4195404;28;20199;-52
2022/08/07 09:39:20;;;;;;;0.70;0.70;;;;;;;24.73;41.14;99202.03;4196003;28;20210;-52
2022/08/07 09:42:04;;;;;;;0.73;0.73;;;;;;;25.25;42.03;99195.38;4186445;28;20219;-55
2022/08/07 09:44:23;;;;;;;0.70;0.70;;;;;;;25.26;41.45;99194.22;4185020;28;20318;-53
2022/08/07 09:47:16;;;;;;;2.38;0.70;;;;;;;25.97;41.28;99176.69;4186553;28;20206;-53
2022/08/07 09:49:56;;;;;;;1.17;0.55;;;;;;;26.63;41.00;99184.38;4200212;28;20233;-53
2022/08/07 09:52:41;;;;;;;1.10;0.68;;;;;;;27.32;39.87;99176.34;4188385;28;20232;-53
2022/08/07 09:54:58;;;;;;;2.80;0.68;;;;;;;27.73;39.18;99174.28;4187172;28;20662;-54
2022/08/07 09:57:28;;;;;;;0.50;0.45;;;;;;;27.31;38.03;99175.50;4185967;28;20560;-54
2022/08/07 09:59:51;;;;;;;0.70;0.70;;;;;;;27.06;37.77;99164.44;4182794;28;20309;-52
2022/08/07 10:02:33;;;;;;;1.52;0.60;;;;;;;26.24;38.64;99165.03;4185253;28;20697;-54
2022/08/07 10:04:44;;;;;;;0.70;0.63;;;;;;;25.69;39.80;99154.94;4185849;28;20234;-53
2022/08/07 10:07:03;;;;;;;0.75;0.60;;;;;;;26.22;39.89;99150.53;4190332;28;20638;-52
2022/08/07 10:09:16;;;;;;;0.73;0.60;;;;;;;26.72;38.55;99153.44;4186678;28;20213;-52
2022/08/07 10:11:54;;;;;;;1.58;0.50;;;;;;;26.75;37.24;99159.19;4183912;28;20229;-55
2022/08/07 10:14:11;;;;;;;1.10;0.70;;;;;;;26.62;38.34;99154.66;4200191;28;20551;-52
2022/08/07 10:16:40;;;;;;;0.63;0.60;;;;;;;26.12;38.80;99152.88;4191227;28;20235;-53
2022/08/07 10:19:04;;;;;;;1.58;0.68;;;;;;;26.36;38.34;99142.69;4186492;28;20214;-52
2022/08/07 10:21:36;;;;;;;1.58;0.52;;;;;;;26.64;39.31;99146.69;4193775;28;20585;-53
2022/08/07 10:23:58;;;;;;;1.77;0.60;;;;;;;27.50;39.22;99142.09;4193297;28;20755;-52
2022/08/07 10:26:17;;;;;;;1.42;0.50;;;;;;;26.98;37.62;99128.81;4187614;28;20215;-52
2022/08/07 10:29:07;;;;;;;0.60;0.60;;;;;;;27.47;38.15;99128.69;4190812;28;20675;-52
2022/08/07 10:31:34;;;;;;;1.23;0.45;;;;;;;27.31;37.71;99127.69;4193552;28;20210;-52
2022/08/07 10:33:45;;;;;;;1.88;0.80;;;;;;;26.90;35.53;99133.31;4186443;28;20623;-52